sensor_id;sensor_type;location;lat;lon;timestamp;P1;durP1;ratioP1;P2;durP2;ratioP2
21591;SDS011;10958;50.892;3.992;2023-02-26T00:01:30;15.30;;;3.40;;
21591;SDS011;10958;50.892;3.992;2023-02-26T00:03:59;20.20;;;3.83;;
21591;SDS011;10958;50.892;3.992;2023-02-26T00:06:26;7.80;;;2.53;;
21591;SDS011;10958;50.892;3.992;2023-02-26T00:08:57;10.93;;;3.13;;
21591;SDS011;10958;50.892;3.992;2023-02-26T00:11:24;8.52;;;2.50;;
21591;SDS011;10958;50.892;3.992;2023-02-26T00:13:52;5.95;;;2.10;;
21591;SDS011;10958;50.892;3.992;2023-02-26T00:16:24;8.90;;;2.70;;
21591;SDS011;10958;50.892;3.992;2023-02-26T00:18:51;12.35;;;2.60;;
21591;SDS011;10958;50.892;3.992;2023-02-26T00:21:19;11.95;;;2.85;;
21591;SDS011;10958;50.892;3.992;2023-02-26T00:23:46;11.52;;;3.22;;
21591;SDS011;10958;50.892;3.992;2023-02-26T00:26:12;10.45;;;2.70;;
21591;SDS011;10958;50.892;3.992;2023-02-26T00:28:37;7.47;;;2.65;;
21591;SDS011;10958;50.892;3.992;2023-02-26T00:31:04;9.27;;;2.63;;
21591;SDS011;10958;50.892;3.992;2023-02-26T00:33:30;9.82;;;2.90;;
21591;SDS011;10958;50.892;3.992;2023-02-26T00:35:59;9.90;;;2.88;;
21591;SDS011;10958;50.892;3.992;2023-02-26T00:41:42;13.32;;;2.88;;
21591;SDS011;10958;50.892;3.992;2023-02-26T00:44:08;26.10;;;10.02;;
21591;SDS011;10958;50.892;3.992;2023-02-26T00:51:44;29.73;;;13.48;;
21591;SDS011;10958;50.892;3.992;2023-02-26T00:54:27;15.77;;;4.75;;
21591;SDS011;10958;50.892;3.992;2023-02-26T00:56:55;7.72;;;3.67;;
21591;SDS011;10958;50.892;3.992;2023-02-26T01:01:50;9.20;;;2.90;;
21591;SDS011;10958;50.892;3.992;2023-02-26T01:04:18;10.95;;;2.50;;
21591;SDS011;10958;50.892;3.992;2023-02-26T01:06:47;14.80;;;2.70;;
21591;SDS011;10958;50.892;3.992;2023-02-26T01:11:44;11.05;;;2.88;;
21591;SDS011;10958;50.892;3.992;2023-02-26T01:14:11;9.25;;;2.95;;
21591;SDS011;10958;50.892;3.992;2023-02-26T01:16:38;10.20;;;2.50;;
21591;SDS011;10958;50.892;3.992;2023-02-26T01:21:59;8.75;;;2.45;;
21591;SDS011;10958;50.892;3.992;2023-02-26T01:24:30;7.10;;;2.30;;
21591;SDS011;10958;50.892;3.992;2023-02-26T01:26:58;12.53;;;3.03;;
21591;SDS011;10958;50.892;3.992;2023-02-26T01:29:24;10.32;;;3.05;;
21591;SDS011;10958;50.892;3.992;2023-02-26T01:31:56;7.88;;;2.33;;
21591;SDS011;10958;50.892;3.992;2023-02-26T01:37:03;11.13;;;3.25;;
21591;SDS011;10958;50.892;3.992;2023-02-26T01:39:46;10.88;;;3.90;;
21591;SDS011;10958;50.892;3.992;2023-02-26T01:42:34;8.10;;;4.40;;
21591;SDS011;10958;50.892;3.992;2023-02-26T01:45:11;12.52;;;6.07;;
21591;SDS011;10958;50.892;3.992;2023-02-26T01:47:57;8.70;;;4.38;;
21591;SDS011;10958;50.892;3.992;2023-02-26T01:50:27;9.82;;;3.90;;
21591;SDS011;10958;50.892;3.992;2023-02-26T01:55:27;9.95;;;4.10;;
21591;SDS011;10958;50.892;3.992;2023-02-26T01:57:54;8.68;;;3.50;;
21591;SDS011;10958;50.892;3.992;2023-02-26T02:00:22;8.73;;;3.15;;
21591;SDS011;10958;50.892;3.992;2023-02-26T02:02:50;8.10;;;2.80;;
21591;SDS011;10958;50.892;3.992;2023-02-26T02:05:30;9.18;;;2.42;;
21591;SDS011;10958;50.892;3.992;2023-02-26T02:08:05;7.80;;;2.67;;
21591;SDS011;10958;50.892;3.992;2023-02-26T02:10:35;9.38;;;2.60;;
21591;SDS011;10958;50.892;3.992;2023-02-26T02:13:14;3.60;;;1.75;;
21591;SDS011;10958;50.892;3.992;2023-02-26T02:18:51;11.63;;;2.60;;
21591;SDS011;10958;50.892;3.992;2023-02-26T02:21:43;8.95;;;2.15;;
21591;SDS011;10958;50.892;3.992;2023-02-26T02:27:18;8.30;;;1.95;;
21591;SDS011;10958;50.892;3.992;2023-02-26T02:35:12;9.98;;;2.65;;
21591;SDS011;10958;50.892;3.992;2023-02-26T02:37:48;8.98;;;2.75;;
21591;SDS011;10958;50.892;3.992;2023-02-26T02:40:21;6.75;;;2.22;;
21591;SDS011;10958;50.892;3.992;2023-02-26T02:43:00;6.72;;;2.20;;
21591;SDS011;10958;50.892;3.992;2023-02-26T02:45:50;9.45;;;2.20;;
21591;SDS011;10958;50.892;3.992;2023-02-26T02:48:25;12.40;;;2.65;;
21591;SDS011;10958;50.892;3.992;2023-02-26T02:51:01;11.40;;;2.40;;
21591;SDS011;10958;50.892;3.992;2023-02-26T02:53:33;6.40;;;2.40;;
21591;SDS011;10958;50.892;3.992;2023-02-26T02:56:14;11.20;;;2.10;;
21591;SDS011;10958;50.892;3.992;2023-02-26T02:58:49;7.57;;;3.83;;
21591;SDS011;10958;50.892;3.992;2023-02-26T03:01:19;12.70;;;2.22;;
21591;SDS011;10958;50.892;3.992;2023-02-26T03:06:16;5.97;;;2.30;;
21591;SDS011;10958;50.892;3.992;2023-02-26T03:08:42;9.23;;;2.58;;
21591;SDS011;10958;50.892;3.992;2023-02-26T03:11:09;6.63;;;1.85;;
21591;SDS011;10958;50.892;3.992;2023-02-26T03:13:37;8.27;;;2.40;;
21591;SDS011;10958;50.892;3.992;2023-02-26T03:29:46;6.13;;;2.35;;
21591;SDS011;10958;50.892;3.992;2023-02-26T03:32:20;6.72;;;1.58;;
21591;SDS011;10958;50.892;3.992;2023-02-26T03:35:04;10.32;;;1.92;;
21591;SDS011;10958;50.892;3.992;2023-02-26T03:37:47;9.05;;;1.60;;
21591;SDS011;10958;50.892;3.992;2023-02-26T03:40:17;6.65;;;1.67;;
21591;SDS011;10958;50.892;3.992;2023-02-26T03:45:42;5.50;;;1.63;;
21591;SDS011;10958;50.892;3.992;2023-02-26T03:48:16;4.32;;;1.52;;
21591;SDS011;10958;50.892;3.992;2023-02-26T03:50:46;7.82;;;1.90;;
21591;SDS011;10958;50.892;3.992;2023-02-26T03:53:23;4.45;;;1.67;;
21591;SDS011;10958;50.892;3.992;2023-02-26T03:58:39;7.40;;;1.73;;
21591;SDS011;10958;50.892;3.992;2023-02-26T04:01:06;4.55;;;1.83;;
21591;SDS011;10958;50.892;3.992;2023-02-26T04:06:22;5.70;;;1.55;;
21591;SDS011;10958;50.892;3.992;2023-02-26T04:08:51;9.35;;;1.77;;
21591;SDS011;10958;50.892;3.992;2023-02-26T04:11:19;6.70;;;1.67;;
21591;SDS011;10958;50.892;3.992;2023-02-26T04:13:46;8.67;;;1.10;;
21591;SDS011;10958;50.892;3.992;2023-02-26T04:16:15;8.35;;;1.67;;
21591;SDS011;10958;50.892;3.992;2023-02-26T04:18:42;8.20;;;1.70;;
21591;SDS011;10958;50.892;3.992;2023-02-26T04:21:12;6.63;;;1.63;;
21591;SDS011;10958;50.892;3.992;2023-02-26T04:23:40;3.70;;;1.27;;
21591;SDS011;10958;50.892;3.992;2023-02-26T04:26:06;4.63;;;1.42;;
21591;SDS011;10958;50.892;3.992;2023-02-26T04:28:31;7.28;;;1.73;;
21591;SDS011;10958;50.892;3.992;2023-02-26T04:30:59;8.25;;;1.60;;
21591;SDS011;10958;50.892;3.992;2023-02-26T04:33:24;9.30;;;1.75;;
21591;SDS011;10958;50.892;3.992;2023-02-26T04:35:51;6.70;;;1.40;;
21591;SDS011;10958;50.892;3.992;2023-02-26T04:38:17;5.18;;;1.27;;
21591;SDS011;10958;50.892;3.992;2023-02-26T04:40:43;8.00;;;1.27;;
21591;SDS011;10958;50.892;3.992;2023-02-26T04:43:11;4.80;;;0.90;;
21591;SDS011;10958;50.892;3.992;2023-02-26T04:45:36;7.22;;;1.40;;
21591;SDS011;10958;50.892;3.992;2023-02-26T04:48:02;5.68;;;1.25;;
21591;SDS011;10958;50.892;3.992;2023-02-26T04:50:28;11.95;;;1.80;;
21591;SDS011;10958;50.892;3.992;2023-02-26T04:52:53;5.10;;;1.35;;
21591;SDS011;10958;50.892;3.992;2023-02-26T04:55:19;5.30;;;1.05;;
21591;SDS011;10958;50.892;3.992;2023-02-26T04:57:45;4.50;;;1.40;;
21591;SDS011;10958;50.892;3.992;2023-02-26T05:00:11;5.22;;;1.02;;
21591;SDS011;10958;50.892;3.992;2023-02-26T05:02:37;7.32;;;1.40;;
21591;SDS011;10958;50.892;3.992;2023-02-26T05:05:02;5.32;;;1.00;;
21591;SDS011;10958;50.892;3.992;2023-02-26T05:07:28;5.95;;;1.70;;
21591;SDS011;10958;50.892;3.992;2023-02-26T05:09:54;5.93;;;0.93;;
21591;SDS011;10958;50.892;3.992;2023-02-26T05:12:20;9.60;;;1.02;;
21591;SDS011;10958;50.892;3.992;2023-02-26T05:14:45;4.28;;;1.10;;
21591;SDS011;10958;50.892;3.992;2023-02-26T05:17:15;4.85;;;1.15;;
21591;SDS011;10958;50.892;3.992;2023-02-26T05:19:41;3.88;;;0.90;;
21591;SDS011;10958;50.892;3.992;2023-02-26T05:22:07;5.57;;;0.80;;
21591;SDS011;10958;50.892;3.992;2023-02-26T05:24:32;6.40;;;1.20;;
21591;SDS011;10958;50.892;3.992;2023-02-26T05:26:59;2.65;;;1.23;;
21591;SDS011;10958;50.892;3.992;2023-02-26T05:29:27;2.67;;;1.10;;
21591;SDS011;10958;50.892;3.992;2023-02-26T05:31:53;3.20;;;1.08;;
21591;SDS011;10958;50.892;3.992;2023-02-26T05:34:18;8.23;;;1.30;;
21591;SDS011;10958;50.892;3.992;2023-02-26T05:36:44;4.70;;;0.90;;
21591;SDS011;10958;50.892;3.992;2023-02-26T05:39:10;5.47;;;1.35;;
21591;SDS011;10958;50.892;3.992;2023-02-26T05:41:36;10.80;;;1.30;;
21591;SDS011;10958;50.892;3.992;2023-02-26T05:44:01;10.65;;;1.55;;
21591;SDS011;10958;50.892;3.992;2023-02-26T05:46:27;5.90;;;1.00;;
21591;SDS011;10958;50.892;3.992;2023-02-26T05:48:53;2.92;;;0.85;;
21591;SDS011;10958;50.892;3.992;2023-02-26T05:51:18;4.28;;;0.82;;
21591;SDS011;10958;50.892;3.992;2023-02-26T05:53:44;5.05;;;1.00;;
21591;SDS011;10958;50.892;3.992;2023-02-26T05:56:13;3.83;;;0.85;;
21591;SDS011;10958;50.892;3.992;2023-02-26T05:58:38;4.78;;;1.10;;
21591;SDS011;10958;50.892;3.992;2023-02-26T06:01:05;2.33;;;1.00;;
21591;SDS011;10958;50.892;3.992;2023-02-26T06:03:31;10.25;;;1.20;;
21591;SDS011;10958;50.892;3.992;2023-02-26T06:05:57;9.65;;;1.65;;
21591;SDS011;10958;50.892;3.992;2023-02-26T06:08:23;4.43;;;0.73;;
21591;SDS011;10958;50.892;3.992;2023-02-26T06:10:51;7.03;;;0.93;;
21591;SDS011;10958;50.892;3.992;2023-02-26T06:13:17;9.30;;;0.95;;
21591;SDS011;10958;50.892;3.992;2023-02-26T06:15:43;5.97;;;0.82;;
21591;SDS011;10958;50.892;3.992;2023-02-26T06:18:09;4.82;;;0.90;;
21591;SDS011;10958;50.892;3.992;2023-02-26T06:20:34;6.47;;;1.00;;
21591;SDS011;10958;50.892;3.992;2023-02-26T06:23:01;3.85;;;1.15;;
21591;SDS011;10958;50.892;3.992;2023-02-26T06:25:26;4.18;;;0.90;;
21591;SDS011;10958;50.892;3.992;2023-02-26T06:27:52;9.13;;;1.17;;
21591;SDS011;10958;50.892;3.992;2023-02-26T06:30:21;3.50;;;0.77;;
21591;SDS011;10958;50.892;3.992;2023-02-26T06:32:47;7.68;;;1.30;;
21591;SDS011;10958;50.892;3.992;2023-02-26T06:35:13;7.85;;;1.08;;
21591;SDS011;10958;50.892;3.992;2023-02-26T06:37:39;5.30;;;1.50;;
21591;SDS011;10958;50.892;3.992;2023-02-26T06:40:05;6.13;;;1.00;;
21591;SDS011;10958;50.892;3.992;2023-02-26T06:42:35;2.03;;;0.80;;
21591;SDS011;10958;50.892;3.992;2023-02-26T06:45:03;2.57;;;0.83;;
21591;SDS011;10958;50.892;3.992;2023-02-26T06:47:29;4.25;;;0.85;;
21591;SDS011;10958;50.892;3.992;2023-02-26T06:49:55;9.10;;;1.42;;
21591;SDS011;10958;50.892;3.992;2023-02-26T06:52:21;2.53;;;0.90;;
21591;SDS011;10958;50.892;3.992;2023-02-26T06:54:47;8.73;;;1.00;;
21591;SDS011;10958;50.892;3.992;2023-02-26T06:57:12;5.40;;;0.93;;
21591;SDS011;10958;50.892;3.992;2023-02-26T06:59:38;3.90;;;0.65;;
21591;SDS011;10958;50.892;3.992;2023-02-26T07:02:04;7.88;;;1.13;;
21591;SDS011;10958;50.892;3.992;2023-02-26T07:04:31;10.57;;;1.27;;
21591;SDS011;10958;50.892;3.992;2023-02-26T07:06:59;5.05;;;0.80;;
21591;SDS011;10958;50.892;3.992;2023-02-26T07:09:24;2.67;;;1.00;;
21591;SDS011;10958;50.892;3.992;2023-02-26T07:11:53;5.43;;;0.70;;
21591;SDS011;10958;50.892;3.992;2023-02-26T07:14:18;4.63;;;1.05;;
21591;SDS011;10958;50.892;3.992;2023-02-26T07:16:44;5.18;;;1.00;;
21591;SDS011;10958;50.892;3.992;2023-02-26T07:19:10;4.72;;;0.98;;
21591;SDS011;10958;50.892;3.992;2023-02-26T07:21:35;9.75;;;1.17;;
21591;SDS011;10958;50.892;3.992;2023-02-26T07:24:01;5.55;;;0.95;;
21591;SDS011;10958;50.892;3.992;2023-02-26T07:26:27;6.25;;;0.77;;
21591;SDS011;10958;50.892;3.992;2023-02-26T07:28:52;4.03;;;1.17;;
21591;SDS011;10958;50.892;3.992;2023-02-26T07:31:18;8.88;;;1.40;;
21591;SDS011;10958;50.892;3.992;2023-02-26T07:33:44;6.55;;;0.95;;
21591;SDS011;10958;50.892;3.992;2023-02-26T07:36:09;3.47;;;0.85;;
21591;SDS011;10958;50.892;3.992;2023-02-26T07:38:35;3.08;;;0.75;;
21591;SDS011;10958;50.892;3.992;2023-02-26T07:41:01;4.97;;;1.30;;
21591;SDS011;10958;50.892;3.992;2023-02-26T07:43:26;4.30;;;0.70;;
21591;SDS011;10958;50.892;3.992;2023-02-26T07:45:52;3.85;;;0.80;;
21591;SDS011;10958;50.892;3.992;2023-02-26T07:48:18;4.80;;;0.88;;
21591;SDS011;10958;50.892;3.992;2023-02-26T07:50:45;5.30;;;1.20;;
21591;SDS011;10958;50.892;3.992;2023-02-26T07:53:11;1.65;;;0.65;;
21591;SDS011;10958;50.892;3.992;2023-02-26T07:55:37;7.00;;;1.15;;
21591;SDS011;10958;50.892;3.992;2023-02-26T07:58:02;3.13;;;1.10;;
21591;SDS011;10958;50.892;3.992;2023-02-26T08:00:28;2.50;;;0.90;;
21591;SDS011;10958;50.892;3.992;2023-02-26T08:02:55;2.92;;;1.10;;
21591;SDS011;10958;50.892;3.992;2023-02-26T08:05:26;3.67;;;0.80;;
21591;SDS011;10958;50.892;3.992;2023-02-26T08:07:52;5.55;;;0.75;;
21591;SDS011;10958;50.892;3.992;2023-02-26T08:10:18;5.03;;;0.93;;
21591;SDS011;10958;50.892;3.992;2023-02-26T08:12:43;4.40;;;1.08;;
21591;SDS011;10958;50.892;3.992;2023-02-26T08:15:09;4.80;;;1.30;;
21591;SDS011;10958;50.892;3.992;2023-02-26T08:17:38;3.53;;;1.00;;
21591;SDS011;10958;50.892;3.992;2023-02-26T08:20:04;4.30;;;1.00;;
21591;SDS011;10958;50.892;3.992;2023-02-26T08:22:33;6.65;;;1.10;;
21591;SDS011;10958;50.892;3.992;2023-02-26T08:24:59;4.88;;;0.85;;
21591;SDS011;10958;50.892;3.992;2023-02-26T08:27:25;1.88;;;0.88;;
21591;SDS011;10958;50.892;3.992;2023-02-26T08:29:51;9.10;;;1.13;;
21591;SDS011;10958;50.892;3.992;2023-02-26T08:32:17;2.20;;;0.75;;
21591;SDS011;10958;50.892;3.992;2023-02-26T08:34:44;3.42;;;0.55;;
21591;SDS011;10958;50.892;3.992;2023-02-26T08:37:10;3.53;;;0.70;;
21591;SDS011;10958;50.892;3.992;2023-02-26T08:39:37;3.35;;;0.75;;
21591;SDS011;10958;50.892;3.992;2023-02-26T08:42:07;2.95;;;1.00;;
21591;SDS011;10958;50.892;3.992;2023-02-26T08:44:34;1.73;;;0.63;;
21591;SDS011;10958;50.892;3.992;2023-02-26T08:47:00;3.25;;;0.90;;
21591;SDS011;10958;50.892;3.992;2023-02-26T08:49:27;1.33;;;0.63;;
21591;SDS011;10958;50.892;3.992;2023-02-26T08:51:54;3.38;;;1.02;;
21591;SDS011;10958;50.892;3.992;2023-02-26T08:54:22;1.50;;;0.73;;
21591;SDS011;10958;50.892;3.992;2023-02-26T08:56:49;4.18;;;0.75;;
21591;SDS011;10958;50.892;3.992;2023-02-26T08:59:17;2.00;;;0.60;;
21591;SDS011;10958;50.892;3.992;2023-02-26T09:01:43;4.40;;;0.77;;
21591;SDS011;10958;50.892;3.992;2023-02-26T09:04:09;1.02;;;0.55;;
21591;SDS011;10958;50.892;3.992;2023-02-26T09:06:35;3.10;;;0.70;;
21591;SDS011;10958;50.892;3.992;2023-02-26T09:09:01;5.47;;;0.70;;
21591;SDS011;10958;50.892;3.992;2023-02-26T09:11:27;2.40;;;0.70;;
21591;SDS011;10958;50.892;3.992;2023-02-26T09:13:54;4.28;;;0.77;;
21591;SDS011;10958;50.892;3.992;2023-02-26T09:16:21;1.98;;;0.63;;
21591;SDS011;10958;50.892;3.992;2023-02-26T09:18:47;2.65;;;0.52;;
21591;SDS011;10958;50.892;3.992;2023-02-26T09:21:12;3.30;;;1.38;;
21591;SDS011;10958;50.892;3.992;2023-02-26T09:23:38;1.83;;;0.57;;
21591;SDS011;10958;50.892;3.992;2023-02-26T09:26:04;1.75;;;0.50;;
21591;SDS011;10958;50.892;3.992;2023-02-26T09:28:30;1.70;;;0.65;;
21591;SDS011;10958;50.892;3.992;2023-02-26T09:30:56;4.07;;;0.60;;
21591;SDS011;10958;50.892;3.992;2023-02-26T09:33:22;2.70;;;1.00;;
21591;SDS011;10958;50.892;3.992;2023-02-26T09:35:48;2.10;;;0.60;;
21591;SDS011;10958;50.892;3.992;2023-02-26T09:38:15;4.20;;;0.85;;
21591;SDS011;10958;50.892;3.992;2023-02-26T09:40:47;3.67;;;0.43;;
21591;SDS011;10958;50.892;3.992;2023-02-26T09:51:33;4.03;;;0.73;;
21591;SDS011;10958;50.892;3.992;2023-02-26T09:54:02;3.13;;;0.68;;
21591;SDS011;10958;50.892;3.992;2023-02-26T09:56:37;1.63;;;0.80;;
21591;SDS011;10958;50.892;3.992;2023-02-26T09:59:04;1.73;;;0.70;;
21591;SDS011;10958;50.892;3.992;2023-02-26T10:09:48;2.33;;;0.60;;
21591;SDS011;10958;50.892;3.992;2023-02-26T10:12:20;1.05;;;0.50;;
21591;SDS011;10958;50.892;3.992;2023-02-26T10:15:00;1.92;;;0.63;;
21591;SDS011;10958;50.892;3.992;2023-02-26T10:20:33;4.95;;;0.60;;
21591;SDS011;10958;50.892;3.992;2023-02-26T10:23:11;3.30;;;0.85;;
21591;SDS011;10958;50.892;3.992;2023-02-26T10:25:45;2.40;;;0.40;;
21591;SDS011;10958;50.892;3.992;2023-02-26T10:30:57;0.75;;;0.40;;
21591;SDS011;10958;50.892;3.992;2023-02-26T10:33:37;1.55;;;0.60;;
21591;SDS011;10958;50.892;3.992;2023-02-26T10:38:49;5.07;;;0.60;;
21591;SDS011;10958;50.892;3.992;2023-02-26T10:41:22;2.45;;;0.70;;
21591;SDS011;10958;50.892;3.992;2023-02-26T10:44:37;1.70;;;0.60;;
21591;SDS011;10958;50.892;3.992;2023-02-26T10:52:16;1.42;;;0.50;;
21591;SDS011;10958;50.892;3.992;2023-02-26T10:57:48;3.00;;;0.45;;
21591;SDS011;10958;50.892;3.992;2023-02-26T11:03:36;5.05;;;0.85;;
21591;SDS011;10958;50.892;3.992;2023-02-26T11:06:04;1.45;;;0.50;;
21591;SDS011;10958;50.892;3.992;2023-02-26T11:08:42;2.75;;;0.70;;
21591;SDS011;10958;50.892;3.992;2023-02-26T11:11:09;3.03;;;0.90;;
21591;SDS011;10958;50.892;3.992;2023-02-26T11:13:38;2.80;;;0.88;;
21591;SDS011;10958;50.892;3.992;2023-02-26T11:16:13;1.98;;;0.70;;
21591;SDS011;10958;50.892;3.992;2023-02-26T11:18:41;1.92;;;0.60;;
21591;SDS011;10958;50.892;3.992;2023-02-26T11:21:18;2.92;;;0.43;;
21591;SDS011;10958;50.892;3.992;2023-02-26T11:26:58;2.47;;;0.63;;
21591;SDS011;10958;50.892;3.992;2023-02-26T11:29:28;3.72;;;0.60;;
21591;SDS011;10958;50.892;3.992;2023-02-26T11:32:18;1.52;;;0.70;;
21591;SDS011;10958;50.892;3.992;2023-02-26T11:34:50;2.90;;;0.40;;
21591;SDS011;10958;50.892;3.992;2023-02-26T11:39:45;1.75;;;0.70;;
21591;SDS011;10958;50.892;3.992;2023-02-26T11:44:42;1.65;;;0.90;;
21591;SDS011;10958;50.892;3.992;2023-02-26T11:47:16;1.85;;;0.60;;
21591;SDS011;10958;50.892;3.992;2023-02-26T11:49:53;1.77;;;0.50;;
21591;SDS011;10958;50.892;3.992;2023-02-26T11:55:00;1.55;;;0.47;;
21591;SDS011;10958;50.892;3.992;2023-02-26T11:57:29;2.58;;;0.40;;
21591;SDS011;10958;50.892;3.992;2023-02-26T11:59:58;2.10;;;0.80;;
21591;SDS011;10958;50.892;3.992;2023-02-26T12:02:41;3.63;;;0.68;;
21591;SDS011;10958;50.892;3.992;2023-02-26T12:05:10;1.85;;;0.80;;
21591;SDS011;10958;50.892;3.992;2023-02-26T12:07:42;2.47;;;0.65;;
21591;SDS011;10958;50.892;3.992;2023-02-26T12:10:17;4.38;;;0.60;;
21591;SDS011;10958;50.892;3.992;2023-02-26T12:15:28;2.88;;;0.82;;
21591;SDS011;10958;50.892;3.992;2023-02-26T12:18:20;2.20;;;0.57;;
21591;SDS011;10958;50.892;3.992;2023-02-26T12:26:40;2.20;;;0.60;;
21591;SDS011;10958;50.892;3.992;2023-02-26T12:29:24;3.47;;;0.70;;
21591;SDS011;10958;50.892;3.992;2023-02-26T12:43:31;1.73;;;0.70;;
21591;SDS011;10958;50.892;3.992;2023-02-26T12:46:10;2.67;;;0.80;;
21591;SDS011;10958;50.892;3.992;2023-02-26T12:49:05;2.00;;;0.80;;
21591;SDS011;10958;50.892;3.992;2023-02-26T12:54:52;2.42;;;0.93;;
21591;SDS011;10958;50.892;3.992;2023-02-26T12:57:46;1.33;;;0.60;;
21591;SDS011;10958;50.892;3.992;2023-02-26T13:05:27;2.20;;;0.70;;
21591;SDS011;10958;50.892;3.992;2023-02-26T13:13:55;4.22;;;0.70;;
21591;SDS011;10958;50.892;3.992;2023-02-26T13:16:51;2.58;;;0.63;;
21591;SDS011;10958;50.892;3.992;2023-02-26T13:19:31;1.33;;;0.70;;
21591;SDS011;10958;50.892;3.992;2023-02-26T13:22:04;1.08;;;0.63;;
21591;SDS011;10958;50.892;3.992;2023-02-26T13:24:49;1.00;;;0.70;;
21591;SDS011;10958;50.892;3.992;2023-02-26T13:27:27;3.08;;;0.80;;
21591;SDS011;10958;50.892;3.992;2023-02-26T13:30:03;4.68;;;0.70;;
21591;SDS011;10958;50.892;3.992;2023-02-26T13:32:38;2.45;;;0.60;;
21591;SDS011;10958;50.892;3.992;2023-02-26T13:38:12;1.48;;;0.60;;
21591;SDS011;10958;50.892;3.992;2023-02-26T13:46:56;2.38;;;0.75;;
21591;SDS011;10958;50.892;3.992;2023-02-26T13:49:07;1.73;;;0.63;;
21591;SDS011;10958;50.892;3.992;2023-02-26T13:51:49;1.48;;;0.50;;
21591;SDS011;10958;50.892;3.992;2023-02-26T14:14:23;5.53;;;0.68;;
21591;SDS011;10958;50.892;3.992;2023-02-26T14:20:05;1.05;;;0.60;;
21591;SDS011;10958;50.892;3.992;2023-02-26T14:22:40;1.38;;;0.50;;
21591;SDS011;10958;50.892;3.992;2023-02-26T14:27:46;2.33;;;0.68;;
21591;SDS011;10958;50.892;3.992;2023-02-26T14:30:18;2.83;;;1.17;;
21591;SDS011;10958;50.892;3.992;2023-02-26T14:44:13;1.65;;;0.73;;
21591;SDS011;10958;50.892;3.992;2023-02-26T14:46:40;1.40;;;0.43;;
21591;SDS011;10958;50.892;3.992;2023-02-26T14:49:12;1.88;;;0.80;;
21591;SDS011;10958;50.892;3.992;2023-02-26T15:00:11;3.15;;;0.80;;
21591;SDS011;10958;50.892;3.992;2023-02-26T15:03:00;5.63;;;0.70;;
21591;SDS011;10958;50.892;3.992;2023-02-26T15:08:44;1.63;;;0.82;;
21591;SDS011;10958;50.892;3.992;2023-02-26T15:11:07;1.48;;;0.60;;
21591;SDS011;10958;50.892;3.992;2023-02-26T15:17:08;1.90;;;0.68;;
21591;SDS011;10958;50.892;3.992;2023-02-26T15:24:49;1.38;;;0.80;;
21591;SDS011;10958;50.892;3.992;2023-02-26T15:27:16;1.42;;;0.60;;
21591;SDS011;10958;50.892;3.992;2023-02-26T15:29:44;1.55;;;0.73;;
21591;SDS011;10958;50.892;3.992;2023-02-26T15:32:25;4.28;;;0.88;;
21591;SDS011;10958;50.892;3.992;2023-02-26T15:35:02;2.58;;;0.70;;
21591;SDS011;10958;50.892;3.992;2023-02-26T15:37:38;1.60;;;0.57;;
21591;SDS011;10958;50.892;3.992;2023-02-26T15:40:04;1.85;;;0.63;;
21591;SDS011;10958;50.892;3.992;2023-02-26T15:42:34;5.78;;;0.68;;
21591;SDS011;10958;50.892;3.992;2023-02-26T15:45:08;2.25;;;1.00;;
21591;SDS011;10958;50.892;3.992;2023-02-26T15:47:39;2.90;;;0.95;;
21591;SDS011;10958;50.892;3.992;2023-02-26T15:50:05;4.05;;;0.70;;
21591;SDS011;10958;50.892;3.992;2023-02-26T15:52:31;2.40;;;0.80;;
21591;SDS011;10958;50.892;3.992;2023-02-26T15:55:03;1.15;;;0.60;;
21591;SDS011;10958;50.892;3.992;2023-02-26T15:57:31;4.07;;;0.90;;
21591;SDS011;10958;50.892;3.992;2023-02-26T16:00:01;2.42;;;0.68;;
21591;SDS011;10958;50.892;3.992;2023-02-26T16:02:33;3.45;;;0.80;;
21591;SDS011;10958;50.892;3.992;2023-02-26T16:05:00;2.20;;;0.70;;
21591;SDS011;10958;50.892;3.992;2023-02-26T16:07:26;3.15;;;0.90;;
21591;SDS011;10958;50.892;3.992;2023-02-26T16:09:55;3.78;;;1.00;;
21591;SDS011;10958;50.892;3.992;2023-02-26T16:12:30;1.83;;;1.08;;
21591;SDS011;10958;50.892;3.992;2023-02-26T16:15:06;2.25;;;0.73;;
21591;SDS011;10958;50.892;3.992;2023-02-26T16:17:38;4.53;;;0.70;;
21591;SDS011;10958;50.892;3.992;2023-02-26T16:20:13;2.50;;;0.63;;
21591;SDS011;10958;50.892;3.992;2023-02-26T16:22:47;2.30;;;0.80;;
21591;SDS011;10958;50.892;3.992;2023-02-26T16:26:18;1.77;;;0.85;;
21591;SDS011;10958;50.892;3.992;2023-02-26T16:28:28;2.55;;;1.00;;
21591;SDS011;10958;50.892;3.992;2023-02-26T16:30:57;4.25;;;1.10;;
21591;SDS011;10958;50.892;3.992;2023-02-26T16:33:26;3.95;;;1.02;;
21591;SDS011;10958;50.892;3.992;2023-02-26T16:36:08;2.30;;;0.85;;
21591;SDS011;10958;50.892;3.992;2023-02-26T16:38:43;3.08;;;0.95;;
21591;SDS011;10958;50.892;3.992;2023-02-26T16:41:13;1.98;;;0.70;;
21591;SDS011;10958;50.892;3.992;2023-02-26T16:46:58;2.05;;;1.10;;
21591;SDS011;10958;50.892;3.992;2023-02-26T16:51:47;2.13;;;1.00;;
21591;SDS011;10958;50.892;3.992;2023-02-26T16:54:20;2.80;;;1.10;;
21591;SDS011;10958;50.892;3.992;2023-02-26T16:56:51;1.90;;;0.98;;
21591;SDS011;10958;50.892;3.992;2023-02-26T16:59:27;2.15;;;1.00;;
21591;SDS011;10958;50.892;3.992;2023-02-26T17:02:03;3.70;;;1.10;;
21591;SDS011;10958;50.892;3.992;2023-02-26T17:04:38;2.55;;;1.40;;
21591;SDS011;10958;50.892;3.992;2023-02-26T17:07:06;2.40;;;1.10;;
21591;SDS011;10958;50.892;3.992;2023-02-26T17:09:44;4.32;;;1.27;;
21591;SDS011;10958;50.892;3.992;2023-02-26T17:14:43;3.70;;;1.33;;
21591;SDS011;10958;50.892;3.992;2023-02-26T17:17:11;3.75;;;1.27;;
21591;SDS011;10958;50.892;3.992;2023-02-26T17:19:38;2.97;;;1.33;;
21591;SDS011;10958;50.892;3.992;2023-02-26T17:22:04;5.22;;;1.50;;
21591;SDS011;10958;50.892;3.992;2023-02-26T17:24:36;1.73;;;0.90;;
21591;SDS011;10958;50.892;3.992;2023-02-26T17:27:05;2.13;;;1.02;;
21591;SDS011;10958;50.892;3.992;2023-02-26T17:29:33;3.38;;;1.02;;
21591;SDS011;10958;50.892;3.992;2023-02-26T17:32:04;4.05;;;1.10;;
21591;SDS011;10958;50.892;3.992;2023-02-26T17:34:37;2.97;;;1.25;;
21591;SDS011;10958;50.892;3.992;2023-02-26T17:37:05;4.82;;;1.20;;
21591;SDS011;10958;50.892;3.992;2023-02-26T17:39:32;3.97;;;1.70;;
21591;SDS011;10958;50.892;3.992;2023-02-26T17:42:02;5.27;;;1.70;;
21591;SDS011;10958;50.892;3.992;2023-02-26T17:44:28;4.97;;;1.60;;
21591;SDS011;10958;50.892;3.992;2023-02-26T17:46:58;3.95;;;1.83;;
21591;SDS011;10958;50.892;3.992;2023-02-26T17:49:26;2.97;;;1.45;;
21591;SDS011;10958;50.892;3.992;2023-02-26T17:51:58;5.38;;;1.50;;
21591;SDS011;10958;50.892;3.992;2023-02-26T17:54:30;4.13;;;1.35;;
21591;SDS011;10958;50.892;3.992;2023-02-26T17:57:36;6.13;;;1.20;;
21591;SDS011;10958;50.892;3.992;2023-02-26T18:00:22;6.75;;;1.50;;
21591;SDS011;10958;50.892;3.992;2023-02-26T18:02:57;4.68;;;1.30;;
21591;SDS011;10958;50.892;3.992;2023-02-26T18:05:29;1.98;;;1.10;;
21591;SDS011;10958;50.892;3.992;2023-02-26T18:11:52;2.40;;;1.40;;
21591;SDS011;10958;50.892;3.992;2023-02-26T18:14:18;9.98;;;2.08;;
21591;SDS011;10958;50.892;3.992;2023-02-26T18:16:43;4.72;;;1.75;;
21591;SDS011;10958;50.892;3.992;2023-02-26T18:19:13;4.45;;;2.08;;
21591;SDS011;10958;50.892;3.992;2023-02-26T18:21:39;3.75;;;1.88;;
21591;SDS011;10958;50.892;3.992;2023-02-26T18:24:05;7.32;;;2.13;;
21591;SDS011;10958;50.892;3.992;2023-02-26T18:26:31;4.45;;;2.05;;
21591;SDS011;10958;50.892;3.992;2023-02-26T18:28:58;4.32;;;1.85;;
21591;SDS011;10958;50.892;3.992;2023-02-26T18:31:29;4.63;;;1.83;;
21591;SDS011;10958;50.892;3.992;2023-02-26T18:33:59;3.85;;;1.30;;
21591;SDS011;10958;50.892;3.992;2023-02-26T18:36:34;2.67;;;1.40;;
21591;SDS011;10958;50.892;3.992;2023-02-26T18:39:23;3.22;;;1.45;;
21591;SDS011;10958;50.892;3.992;2023-02-26T18:42:03;3.00;;;1.52;;